ROMMA est une association bénévole à but non lucratif. Votre soutien est indispensable : ADHERER à ROMMA ou FAIRE un DON

Ambérieu-en-Bugey - (01, Ain)

Bugey (255 m)   Longitude: 05° 21' 7"E   Latitude: 45° 58' 24"N Station partenaire n°84
 

Détail journalier du     <<     >>

Température Precipitation Humidité Pression Vent Dir Rafale Dir. rafale
Heure (°C) (mm) (%) (hPa) (km/h) (km/h)
01:00 5.8078101608NNE
02:00 5.6078101608NNE
03:00 4.708010162NNE8NE
04:00 4.208310162NE10NE
05:00 3.608410163NE13ENE
06:00 3.108510164ENE13E
07:00 2.408610174NE11NE
08:00 2.308610173NE13NNE
09:00 3.808310183NNE15ENE
10:00 5.707710174NNE15NE
11:00 8.406910184NNE16E
12:00 10.506310186NNE19NE
13:00 12.305610178NNE24N
14:00 13.605210178NNE29ENE
15:00 14.2048101710NNE24NNE
16:00 14.2048101711NNE29NE
17:00 14.1047101710N26NNE
18:00 13.604610179NNE27NNE
19:00 12.8045101710NNE26NE
20:00 11.405010188NNE26NNE
21:00 9.505810183NE18NNE
22:00 8.506010181NE13NE
23:00 7.406410182NE10NNE
minuit 6.207010191NNE10NNE

Graphique du 12-04-2019

 

Serveur OMMA